createdAt,value
2018-09-13T00:00:36.732Z,98206.16
2018-09-13T00:03:05.371Z,98208.61
2018-09-13T00:05:33.905Z,98206.43
2018-09-13T00:08:02.500Z,98207.50
2018-09-13T00:10:31.043Z,98208.03
2018-09-13T00:12:59.627Z,98211.78
2018-09-13T00:15:28.144Z,98209.33
2018-09-13T00:17:56.736Z,98213.33
2018-09-13T00:20:25.284Z,98211.73
2018-09-13T00:22:53.864Z,98206.03
2018-09-13T00:25:22.418Z,98200.16
2018-09-13T00:27:50.971Z,98198.22
2018-09-13T00:30:19.510Z,98197.95
2018-09-13T00:32:48.100Z,98191.98
2018-09-13T00:35:16.684Z,98193.09
2018-09-13T00:37:45.262Z,98194.99
2018-09-13T00:40:13.813Z,98202.53
2018-09-13T00:42:42.424Z,98201.16
2018-09-13T00:45:10.976Z,98193.63
2018-09-13T00:47:43.961Z,98198.94
2018-09-13T00:50:13.536Z,98191.37
2018-09-13T00:52:42.120Z,98188.45
2018-09-13T00:55:10.810Z,98188.14
2018-09-13T00:57:39.405Z,98186.20
2018-09-13T01:00:08.363Z,98187.16
2018-09-13T01:02:37.407Z,98193.69
2018-09-13T01:05:06.262Z,98182.89
2018-09-13T01:07:34.971Z,98176.08
2018-09-13T01:10:03.572Z,98180.23
2018-09-13T01:12:32.188Z,98178.98
2018-09-13T01:15:00.719Z,98180.36
2018-09-13T01:17:29.283Z,98180.45
2018-09-13T01:19:57.824Z,98180.29
2018-09-13T01:22:26.405Z,98178.68
2018-09-13T01:24:55.443Z,98179.55
2018-09-13T01:27:25.084Z,98174.99
2018-09-13T01:29:53.616Z,98168.20
2018-09-13T01:32:22.278Z,98157.44
2018-09-13T01:34:50.902Z,98156.83
2018-09-13T01:37:19.485Z,98152.45
2018-09-13T01:39:48.062Z,98154.30
2018-09-13T01:42:16.679Z,98153.69
2018-09-13T01:44:45.192Z,98153.30
2018-09-13T01:47:13.742Z,98159.83
2018-09-13T01:49:42.359Z,98158.28
2018-09-13T01:52:10.953Z,98155.87
2018-09-13T01:54:39.571Z,98154.52
2018-09-13T01:57:08.961Z,98148.87
2018-09-13T01:59:37.585Z,98150.56
2018-09-13T02:02:06.180Z,98155.71
2018-09-13T02:04:34.755Z,98157.55
2018-09-13T02:07:03.291Z,98155.41
2018-09-13T02:09:31.880Z,98161.80
2018-09-13T02:12:00.431Z,98149.96
2018-09-13T02:14:28.987Z,98155.71
2018-09-13T02:16:57.523Z,98151.41
2018-09-13T02:19:26.083Z,98153.05
2018-09-13T02:21:54.617Z,98157.65
2018-09-13T02:24:23.200Z,98155.03
2018-09-13T02:26:51.715Z,98157.45
2018-09-13T02:29:20.276Z,98150.17
2018-09-13T02:31:48.799Z,98148.89
2018-09-13T02:34:17.350Z,98141.67
2018-09-13T02:36:45.880Z,98144.62
2018-09-13T02:39:14.455Z,98154.27
2018-09-13T02:41:43.100Z,98151.28
2018-09-13T02:44:12.045Z,98155.36
2018-09-13T02:46:40.650Z,98157.81
2018-09-13T02:49:09.333Z,98150.13
2018-09-13T02:51:37.891Z,98150.27
2018-09-13T02:54:06.476Z,98145.34
2018-09-13T02:56:35.044Z,98148.30
2018-09-13T02:59:03.669Z,98150.23
2018-09-13T03:01:32.217Z,98146.46
2018-09-13T03:04:00.812Z,98150.59
2018-09-13T03:06:29.335Z,98142.05
2018-09-13T03:08:57.892Z,98145.32
2018-09-13T03:11:26.425Z,98157.96
2018-09-13T03:13:54.999Z,98172.56
2018-09-13T03:16:23.558Z,98182.58
2018-09-13T03:18:52.124Z,98174.16
2018-09-13T03:21:20.655Z,98178.94
2018-09-13T03:23:49.233Z,98179.72
2018-09-13T03:26:17.949Z,98176.28
2018-09-13T03:28:46.602Z,98176.85
2018-09-13T03:31:15.116Z,98170.48
2018-09-13T03:33:43.736Z,98167.88
2018-09-13T03:36:12.297Z,98173.34
2018-09-13T03:38:40.920Z,98172.59
2018-09-13T03:41:09.524Z,98167.59
2018-09-13T03:43:38.533Z,98160.54
2018-09-13T03:46:07.081Z,98159.02
2018-09-13T03:48:35.693Z,98165.05
2018-09-13T03:51:04.433Z,98158.09
2018-09-13T03:53:32.987Z,98164.87
2018-09-13T03:56:01.541Z,98160.05
2018-09-13T03:58:30.165Z,98161.72
2018-09-13T04:00:58.743Z,98169.80
2018-09-13T04:03:27.443Z,98176.81
2018-09-13T04:05:56.019Z,98168.71
2018-09-13T04:08:24.604Z,98166.06
2018-09-13T04:10:53.191Z,98158.81
2018-09-13T04:13:21.772Z,98156.94
2018-09-13T04:15:50.344Z,98152.94
2018-09-13T04:18:18.872Z,98151.32
2018-09-13T04:20:47.444Z,98147.06
2018-09-13T04:23:16.007Z,98140.38
2018-09-13T04:25:44.597Z,98136.35
2018-09-13T04:28:13.152Z,98138.50
2018-09-13T04:30:41.751Z,98136.37
2018-09-13T04:33:10.304Z,98136.07
2018-09-13T04:35:39.402Z,98132.30
2018-09-13T04:38:08.080Z,98132.85
2018-09-13T04:40:36.725Z,98127.70
2018-09-13T04:43:05.389Z,98131.74
2018-09-13T04:45:33.930Z,98138.23
2018-09-13T04:48:02.457Z,98146.34
2018-09-13T04:50:31.015Z,98146.08
2018-09-13T04:52:59.547Z,98146.34
2018-09-13T04:55:28.112Z,98150.39
2018-09-13T04:57:56.650Z,98150.91
2018-09-13T05:00:25.209Z,98149.30
2018-09-13T05:02:53.758Z,98153.89
2018-09-13T05:05:22.313Z,98143.08
2018-09-13T05:07:50.848Z,98144.39
2018-09-13T05:10:19.436Z,98137.62
2018-09-13T05:12:48.279Z,98128.95
2018-09-13T05:15:16.835Z,98118.63
2018-09-13T05:17:45.371Z,98116.18
2018-09-13T05:20:14.258Z,98116.94
2018-09-13T05:22:43.814Z,98123.39
2018-09-13T05:25:12.456Z,98136.63
2018-09-13T05:27:41.024Z,98134.93
2018-09-13T05:30:09.649Z,98135.97
2018-09-13T05:32:38.279Z,98135.33
2018-09-13T05:35:08.066Z,98136.59
2018-09-13T05:37:36.822Z,98139.14
2018-09-13T05:40:05.547Z,98136.76
2018-09-13T05:42:34.111Z,98144.02
2018-09-13T05:45:02.754Z,98142.95
2018-09-13T05:47:31.271Z,98139.59
2018-09-13T05:49:59.836Z,98139.64
2018-09-13T05:52:28.347Z,98143.18
2018-09-13T05:54:56.942Z,98158.04
2018-09-13T05:57:25.479Z,98167.26
2018-09-13T05:59:54.036Z,98165.28
2018-09-13T06:02:22.596Z,98159.72
2018-09-13T06:04:51.189Z,98154.42
2018-09-13T06:07:19.742Z,98167.11
2018-09-13T06:09:48.247Z,98174.34
2018-09-13T06:12:16.796Z,98169.33
2018-09-13T06:14:45.296Z,98169.47
2018-09-13T06:17:13.914Z,98172.13
2018-09-13T06:19:42.461Z,98175.82
2018-09-13T06:22:10.999Z,98190.59
2018-09-13T06:24:39.560Z,98194.10
2018-09-13T06:27:08.156Z,98195.77
2018-09-13T06:29:37.005Z,98187.08
2018-09-13T06:32:05.603Z,98190.32
2018-09-13T06:34:34.123Z,98199.66
2018-09-13T06:37:02.788Z,98197.52
2018-09-13T06:39:31.296Z,98195.20
2018-09-13T06:41:59.847Z,98210.45
2018-09-13T06:44:28.360Z,98209.47
2018-09-13T06:46:56.894Z,98203.96
2018-09-13T06:49:25.391Z,98208.34
2018-09-13T06:51:53.956Z,98222.44
2018-09-13T06:54:22.493Z,98215.14
2018-09-13T06:56:51.073Z,98201.01
2018-09-13T06:59:19.594Z,98200.37
2018-09-13T07:01:48.408Z,98213.58
2018-09-13T07:04:16.927Z,98207.69
2018-09-13T07:06:45.499Z,98214.45
2018-09-13T07:09:15.240Z,98212.91
2018-09-13T07:11:44.668Z,98210.91
2018-09-13T07:14:13.206Z,98207.13
2018-09-13T07:16:41.783Z,98202.39
2018-09-13T07:19:10.365Z,98204.97
2018-09-13T07:21:38.920Z,98201.87
2018-09-13T07:24:07.484Z,98205.32
2018-09-13T07:26:36.028Z,98211.95
2018-09-13T07:29:04.588Z,98211.83
2018-09-13T07:31:33.168Z,98210.20
2018-09-13T07:34:01.700Z,98204.81
2018-09-13T07:36:30.263Z,98203.02
2018-09-13T07:38:59.532Z,98205.01
2018-09-13T07:41:28.102Z,98209.35
2018-09-13T07:43:56.616Z,98209.83
2018-09-13T07:46:25.184Z,98216.05
2018-09-13T07:48:53.715Z,98211.88
2018-09-13T07:51:22.283Z,98210.81
2018-09-13T07:53:50.825Z,98215.77
2018-09-13T07:56:19.445Z,98225.78
2018-09-13T07:58:48.016Z,98221.38
2018-09-13T08:01:18.246Z,98218.14
2018-09-13T08:03:46.821Z,98215.73
2018-09-13T08:06:15.508Z,98218.30
2018-09-13T08:08:44.091Z,98225.80
2018-09-13T08:11:12.624Z,98223.67
2018-09-13T08:13:41.175Z,98215.34
2018-09-13T08:16:09.705Z,98214.43
2018-09-13T08:18:38.273Z,98219.59
2018-09-13T08:21:06.828Z,98221.80
2018-09-13T08:23:35.376Z,98228.02
2018-09-13T08:26:03.930Z,98231.44
2018-09-13T08:28:32.487Z,98227.66
2018-09-13T08:31:02.052Z,98230.64
2018-09-13T08:33:38.120Z,98230.58
2018-09-13T08:36:06.932Z,98229.37
2018-09-13T08:38:35.599Z,98225.11
2018-09-13T08:41:04.966Z,98227.88
2018-09-13T08:43:33.483Z,98223.95
2018-09-13T08:46:02.005Z,98231.92
2018-09-13T08:48:30.585Z,98231.47
2018-09-13T08:50:59.088Z,98227.33
2018-09-13T08:53:27.821Z,98225.34
2018-09-13T08:55:56.321Z,98224.06
2018-09-13T08:58:24.920Z,98230.42
2018-09-13T09:00:53.443Z,98230.05
2018-09-13T09:03:21.986Z,98227.75
2018-09-13T09:05:50.494Z,98236.58
2018-09-13T09:08:19.050Z,98238.42
2018-09-13T09:10:54.628Z,98237.42
2018-09-13T09:22:13.225Z,98229.86
2018-09-13T09:36:44.227Z,98232.99
2018-09-13T09:39:14.335Z,98232.81
2018-09-13T09:41:44.214Z,98227.84
2018-09-13T09:44:13.604Z,98223.59
2018-09-13T09:46:42.068Z,98216.75
2018-09-13T09:49:10.758Z,98222.65
2018-09-13T09:51:40.241Z,98220.28
2018-09-13T09:54:10.165Z,98217.72
2018-09-13T09:56:38.654Z,98216.34
2018-09-13T09:59:07.160Z,98223.53
2018-09-13T10:01:39.962Z,98220.03
2018-09-13T10:04:08.520Z,98221.44
2018-09-13T10:06:36.986Z,98215.05
2018-09-13T10:11:58.184Z,98203.89
2018-09-13T10:14:26.669Z,98200.74
2018-09-13T10:17:00.490Z,98204.09
2018-09-13T10:19:34.336Z,98201.46
2018-09-13T10:22:07.994Z,98211.78
2018-09-13T10:24:41.824Z,98216.02
2018-09-13T10:27:15.682Z,98206.47
2018-09-13T10:29:49.494Z,98208.20
2018-09-13T10:32:23.070Z,98205.06
2018-09-13T10:34:56.753Z,98206.11
2018-09-13T10:37:30.398Z,98210.89
2018-09-13T10:40:04.132Z,98217.25
2018-09-13T10:42:37.870Z,98214.69
2018-09-13T10:45:11.676Z,98213.70
2018-09-13T10:47:45.430Z,98207.04
2018-09-13T10:50:19.968Z,98206.39
2018-09-13T10:52:54.642Z,98203.13
2018-09-13T10:55:23.268Z,98209.14
2018-09-13T10:57:51.775Z,98201.59
2018-09-13T11:00:20.361Z,98209.45
2018-09-13T11:02:48.870Z,98202.31
2018-09-13T11:05:17.476Z,98203.29
2018-09-13T11:07:45.975Z,98205.08
2018-09-13T11:10:14.487Z,98199.38
2018-09-13T11:12:49.927Z,98201.90
2018-09-13T11:15:26.578Z,98194.02
2018-09-13T11:17:55.073Z,98192.72
2018-09-13T11:20:23.626Z,98189.96
2018-09-13T11:22:54.432Z,98178.55
2018-09-13T11:25:24.183Z,98181.88
2018-09-13T11:27:52.810Z,98175.77
2018-09-13T11:30:21.331Z,98170.67
2018-09-13T11:32:49.887Z,98169.52
2018-09-13T11:35:18.415Z,98165.95
2018-09-13T11:37:46.951Z,98159.34
2018-09-13T11:40:16.029Z,98160.07
2018-09-13T11:42:44.850Z,98151.15
2018-09-13T11:45:13.466Z,98147.20
2018-09-13T11:47:42.409Z,98146.48
2018-09-13T11:50:10.995Z,98152.23
2018-09-13T11:52:39.478Z,98150.38
2018-09-13T11:55:08.027Z,98145.69
2018-09-13T11:57:36.589Z,98149.12
2018-09-13T12:00:05.206Z,98145.84
2018-09-13T12:02:33.681Z,98145.86
2018-09-13T12:05:02.461Z,98142.02
2018-09-13T12:07:30.946Z,98138.02
2018-09-13T12:09:59.456Z,98133.36
2018-09-13T12:12:27.973Z,98129.69
2018-09-13T12:14:56.502Z,98131.05
2018-09-13T12:17:24.989Z,98123.23
2018-09-13T12:19:53.485Z,98119.27
2018-09-13T12:22:22.039Z,98116.29
2018-09-13T12:24:50.530Z,98120.45
2018-09-13T12:27:19.038Z,98116.48
2018-09-13T12:29:47.549Z,98121.73
2018-09-13T12:32:16.095Z,98120.20
2018-09-13T12:34:44.613Z,98116.31
2018-09-13T12:37:13.126Z,98109.75
2018-09-13T12:39:41.637Z,98111.65
2018-09-13T12:42:10.142Z,98107.09
2018-09-13T12:44:38.634Z,98101.42
2018-09-13T12:47:07.203Z,98099.81
2018-09-13T12:49:35.758Z,98096.72
2018-09-13T12:52:04.300Z,98090.43
2018-09-13T12:54:32.825Z,98088.74
2018-09-13T12:57:01.426Z,98091.28
2018-09-13T12:59:35.882Z,98081.65
2018-09-13T13:02:05.677Z,98078.16
2018-09-13T13:04:34.197Z,98071.58
2018-09-13T13:07:02.877Z,98073.50
2018-09-13T13:09:31.413Z,98069.50
2018-09-13T13:11:59.958Z,98070.98
2018-09-13T13:14:30.201Z,98068.05
2018-09-13T13:16:58.739Z,98061.20
2018-09-13T13:19:30.189Z,98064.58
2018-09-13T13:21:58.644Z,98062.24
2018-09-13T13:24:27.209Z,98063.09
2018-09-13T13:26:55.706Z,98058.13
2018-09-13T13:29:24.195Z,98060.39
2018-09-13T13:31:52.727Z,98062.23
2018-09-13T13:34:21.221Z,98060.78
2018-09-13T13:36:50.041Z,98053.93
2018-09-13T13:39:18.995Z,98058.31
2018-09-13T13:41:47.530Z,98053.73
2018-09-13T13:44:16.002Z,98053.22
2018-09-13T13:46:45.756Z,98053.91
2018-09-13T13:49:14.362Z,98053.58
2018-09-13T13:51:44.097Z,98046.03
2018-09-13T13:54:12.629Z,98037.33
2018-09-13T13:56:41.142Z,98039.38
2018-09-13T13:59:09.797Z,98041.11
2018-09-13T14:01:39.148Z,98036.85
2018-09-13T14:04:08.739Z,98043.27
2018-09-13T14:06:46.277Z,98038.77
2018-09-13T14:09:24.652Z,98034.58
2018-09-13T14:11:53.166Z,98030.21
2018-09-13T14:14:24.007Z,98038.96
2018-09-13T14:16:56.978Z,98027.91
2018-09-13T14:19:25.673Z,98026.37
2018-09-13T14:21:54.663Z,98027.59
2018-09-13T14:24:23.336Z,98024.25
2018-09-13T14:26:51.862Z,98021.81
2018-09-13T14:29:20.617Z,98016.67
2018-09-13T14:31:49.542Z,98011.54
2018-09-13T14:34:18.017Z,98014.20
2018-09-13T14:36:46.558Z,98019.13
2018-09-13T14:39:15.041Z,98022.75
2018-09-13T14:41:43.563Z,98021.01
2018-09-13T14:44:12.045Z,98021.58
2018-09-13T14:46:41.367Z,98011.11
2018-09-13T14:49:09.874Z,98015.34
2018-09-13T14:51:38.393Z,98012.84
2018-09-13T14:54:06.902Z,98011.72
2018-09-13T14:56:35.750Z,98011.25
2018-09-13T14:59:04.273Z,98008.84
2018-09-13T15:01:32.811Z,98001.27
2018-09-13T15:04:01.347Z,98000.16
2018-09-13T15:06:29.935Z,97997.59
2018-09-13T15:08:58.490Z,97995.48
2018-09-13T15:11:26.966Z,97996.13
2018-09-13T15:13:55.497Z,97987.72
2018-09-13T15:16:23.993Z,97988.05
2018-09-13T15:18:52.604Z,97991.20
2018-09-13T15:21:21.102Z,97997.86
2018-09-13T15:23:54.533Z,97994.70
2018-09-13T15:26:23.734Z,97992.52
2018-09-13T15:28:52.310Z,97994.19
2018-09-13T15:31:20.868Z,97995.25
2018-09-13T15:33:50.349Z,97996.37
2018-09-13T15:36:20.096Z,97987.87
2018-09-13T15:38:48.776Z,97982.44
2018-09-13T15:41:17.278Z,97985.06
2018-09-13T15:43:46.126Z,97987.83
2018-09-13T15:46:17.404Z,97983.87
2018-09-13T15:48:45.916Z,97987.94
2018-09-13T15:51:23.716Z,97987.27
2018-09-13T15:53:52.337Z,97983.00
2018-09-13T15:56:20.925Z,97979.88
2018-09-13T15:58:50.030Z,97980.50
2018-09-13T16:01:18.959Z,97979.31
2018-09-13T16:06:40.650Z,97983.02
2018-09-13T16:09:10.452Z,97982.13
2018-09-13T16:11:41.356Z,97985.63
2018-09-13T16:14:09.927Z,97986.44
2018-09-13T16:16:38.544Z,97980.09
2018-09-13T16:19:07.103Z,97977.91
2018-09-13T16:21:35.640Z,97976.22
2018-09-13T16:24:04.448Z,97984.16
2018-09-13T16:26:33.135Z,97991.91
2018-09-13T16:29:02.044Z,97993.45
2018-09-13T16:31:30.594Z,97993.94
2018-09-13T16:33:59.151Z,97999.95
2018-09-13T16:36:30.032Z,98001.02
2018-09-13T16:39:06.404Z,98002.72
2018-09-13T16:41:41.589Z,98003.87
2018-09-13T16:44:14.345Z,98000.02
2018-09-13T16:46:48.510Z,98001.06
2018-09-13T16:49:17.325Z,98004.25
2018-09-13T16:54:39.545Z,98005.57
2018-09-13T17:00:00.672Z,98004.48
2018-09-13T17:02:29.166Z,97997.83
2018-09-13T17:04:58.126Z,97997.37
2018-09-13T17:07:27.075Z,97994.93
2018-09-13T17:09:55.648Z,97992.62
2018-09-13T17:12:24.222Z,97994.81
2018-09-13T17:14:52.864Z,97998.08
2018-09-13T17:17:21.422Z,97992.15
2018-09-13T17:19:49.978Z,97997.98
2018-09-13T17:28:03.742Z,98000.17
2018-09-13T17:30:32.285Z,98005.50
2018-09-13T17:33:00.796Z,98001.95
2018-09-13T17:35:29.935Z,97997.27
2018-09-13T17:37:58.518Z,97997.39
2018-09-13T17:40:27.186Z,98007.20
2018-09-13T17:42:55.702Z,98007.45
2018-09-13T17:45:24.188Z,98003.78
